sensor_id;sensor_type;location;lat;lon;timestamp;P1;durP1;ratioP1;P2;durP2;ratioP2
70071;SDS011;57434;42.794;23.302;2023-06-22T00:00:48;10.52;;;6.13;;
70071;SDS011;57434;42.794;23.302;2023-06-22T00:01:50;11.00;;;6.25;;
70071;SDS011;57434;42.794;23.302;2023-06-22T00:02:52;10.20;;;6.00;;
70071;SDS011;57434;42.794;23.302;2023-06-22T00:03:53;11.18;;;5.78;;
70071;SDS011;57434;42.794;23.302;2023-06-22T00:04:55;9.80;;;5.65;;
70071;SDS011;57434;42.794;23.302;2023-06-22T00:05:56;9.07;;;5.57;;
70071;SDS011;57434;42.794;23.302;2023-06-22T00:06:58;9.90;;;5.80;;
70071;SDS011;57434;42.794;23.302;2023-06-22T00:08:03;9.70;;;5.32;;
70071;SDS011;57434;42.794;23.302;2023-06-22T00:09:04;9.50;;;5.55;;
70071;SDS011;57434;42.794;23.302;2023-06-22T00:10:06;10.43;;;5.95;;
70071;SDS011;57434;42.794;23.302;2023-06-22T00:11:08;10.43;;;6.45;;
70071;SDS011;57434;42.794;23.302;2023-06-22T00:12:09;9.65;;;6.18;;
70071;SDS011;57434;42.794;23.302;2023-06-22T00:13:11;11.40;;;6.55;;
70071;SDS011;57434;42.794;23.302;2023-06-22T00:14:13;10.88;;;6.85;;
70071;SDS011;57434;42.794;23.302;2023-06-22T00:15:15;10.70;;;6.72;;
70071;SDS011;57434;42.794;23.302;2023-06-22T00:16:16;10.80;;;6.77;;
70071;SDS011;57434;42.794;23.302;2023-06-22T00:17:18;13.68;;;7.28;;
70071;SDS011;57434;42.794;23.302;2023-06-22T00:18:20;13.02;;;7.25;;
70071;SDS011;57434;42.794;23.302;2023-06-22T00:19:21;13.45;;;6.45;;
70071;SDS011;57434;42.794;23.302;2023-06-22T00:20:23;12.55;;;7.07;;
70071;SDS011;57434;42.794;23.302;2023-06-22T00:21:24;13.40;;;6.80;;
70071;SDS011;57434;42.794;23.302;2023-06-22T00:22:26;12.68;;;6.35;;
70071;SDS011;57434;42.794;23.302;2023-06-22T00:23:28;11.05;;;6.85;;
70071;SDS011;57434;42.794;23.302;2023-06-22T00:24:29;11.70;;;7.47;;
70071;SDS011;57434;42.794;23.302;2023-06-22T00:25:31;14.40;;;7.38;;
70071;SDS011;57434;42.794;23.302;2023-06-22T00:26:33;13.03;;;7.50;;
70071;SDS011;57434;42.794;23.302;2023-06-22T00:27:34;11.32;;;6.65;;
70071;SDS011;57434;42.794;23.302;2023-06-22T00:28:36;11.95;;;6.97;;
70071;SDS011;57434;42.794;23.302;2023-06-22T00:29:37;13.70;;;6.95;;
70071;SDS011;57434;42.794;23.302;2023-06-22T00:30:39;12.00;;;6.90;;
70071;SDS011;57434;42.794;23.302;2023-06-22T00:31:41;16.70;;;7.03;;
70071;SDS011;57434;42.794;23.302;2023-06-22T00:32:43;11.65;;;6.78;;
70071;SDS011;57434;42.794;23.302;2023-06-22T00:33:45;11.13;;;7.07;;
70071;SDS011;57434;42.794;23.302;2023-06-22T00:34:46;14.30;;;6.88;;
70071;SDS011;57434;42.794;23.302;2023-06-22T00:35:48;10.00;;;6.45;;
70071;SDS011;57434;42.794;23.302;2023-06-22T00:36:50;13.17;;;6.97;;
70071;SDS011;57434;42.794;23.302;2023-06-22T00:37:51;11.38;;;7.05;;
70071;SDS011;57434;42.794;23.302;2023-06-22T00:38:53;12.35;;;7.47;;
70071;SDS011;57434;42.794;23.302;2023-06-22T00:39:55;11.85;;;6.72;;
70071;SDS011;57434;42.794;23.302;2023-06-22T00:40:57;13.13;;;6.97;;
70071;SDS011;57434;42.794;23.302;2023-06-22T00:41:58;11.63;;;6.85;;
70071;SDS011;57434;42.794;23.302;2023-06-22T00:43:00;10.45;;;6.82;;
70071;SDS011;57434;42.794;23.302;2023-06-22T00:44:02;12.15;;;6.45;;
70071;SDS011;57434;42.794;23.302;2023-06-22T00:45:04;11.25;;;6.60;;
70071;SDS011;57434;42.794;23.302;2023-06-22T00:46:06;10.98;;;6.05;;
70071;SDS011;57434;42.794;23.302;2023-06-22T00:47:07;15.47;;;6.20;;
70071;SDS011;57434;42.794;23.302;2023-06-22T00:48:09;13.30;;;6.28;;
70071;SDS011;57434;42.794;23.302;2023-06-22T00:49:11;11.65;;;6.80;;
70071;SDS011;57434;42.794;23.302;2023-06-22T00:50:13;10.27;;;6.47;;
70071;SDS011;57434;42.794;23.302;2023-06-22T00:51:18;12.10;;;6.30;;
70071;SDS011;57434;42.794;23.302;2023-06-22T00:52:21;11.45;;;5.82;;
70071;SDS011;57434;42.794;23.302;2023-06-22T00:53:23;9.65;;;5.93;;
70071;SDS011;57434;42.794;23.302;2023-06-22T00:54:25;9.40;;;5.78;;
70071;SDS011;57434;42.794;23.302;2023-06-22T00:55:26;12.02;;;6.57;;
70071;SDS011;57434;42.794;23.302;2023-06-22T00:56:28;9.93;;;6.03;;
70071;SDS011;57434;42.794;23.302;2023-06-22T00:57:30;10.50;;;5.97;;
70071;SDS011;57434;42.794;23.302;2023-06-22T00:58:31;9.57;;;5.18;;
70071;SDS011;57434;42.794;23.302;2023-06-22T00:59:33;10.05;;;5.57;;
70071;SDS011;57434;42.794;23.302;2023-06-22T01:00:35;9.50;;;6.10;;
70071;SDS011;57434;42.794;23.302;2023-06-22T01:01:37;11.13;;;5.68;;
70071;SDS011;57434;42.794;23.302;2023-06-22T01:02:38;10.30;;;6.82;;
70071;SDS011;57434;42.794;23.302;2023-06-22T01:03:40;11.23;;;6.03;;
70071;SDS011;57434;42.794;23.302;2023-06-22T01:04:42;9.85;;;6.15;;
70071;SDS011;57434;42.794;23.302;2023-06-22T01:05:43;10.55;;;5.90;;
70071;SDS011;57434;42.794;23.302;2023-06-22T01:06:47;12.57;;;6.07;;
70071;SDS011;57434;42.794;23.302;2023-06-22T01:09:14;11.38;;;6.10;;
70071;SDS011;57434;42.794;23.302;2023-06-22T01:10:40;14.32;;;6.13;;
70071;SDS011;57434;42.794;23.302;2023-06-22T01:11:39;10.30;;;5.72;;
70071;SDS011;57434;42.794;23.302;2023-06-22T01:12:48;11.70;;;5.50;;
70071;SDS011;57434;42.794;23.302;2023-06-22T01:15:21;12.43;;;5.90;;
70071;SDS011;57434;42.794;23.302;2023-06-22T01:16:31;12.40;;;5.80;;
70071;SDS011;57434;42.794;23.302;2023-06-22T01:17:34;10.05;;;6.10;;
70071;SDS011;57434;42.794;23.302;2023-06-22T01:18:36;12.02;;;6.18;;
70071;SDS011;57434;42.794;23.302;2023-06-22T01:19:45;10.73;;;5.90;;
70071;SDS011;57434;42.794;23.302;2023-06-22T01:20:46;12.18;;;6.82;;
70071;SDS011;57434;42.794;23.302;2023-06-22T01:21:48;10.20;;;6.22;;
70071;SDS011;57434;42.794;23.302;2023-06-22T01:24:06;10.55;;;6.15;;
70071;SDS011;57434;42.794;23.302;2023-06-22T01:25:13;11.57;;;6.10;;
70071;SDS011;57434;42.794;23.302;2023-06-22T01:26:22;10.05;;;5.80;;
70071;SDS011;57434;42.794;23.302;2023-06-22T01:30:37;11.52;;;5.65;;
70071;SDS011;57434;42.794;23.302;2023-06-22T01:31:39;10.67;;;6.03;;
70071;SDS011;57434;42.794;23.302;2023-06-22T01:32:41;11.35;;;6.38;;
70071;SDS011;57434;42.794;23.302;2023-06-22T01:33:45;10.18;;;6.25;;
70071;SDS011;57434;42.794;23.302;2023-06-22T01:34:48;10.85;;;5.95;;
70071;SDS011;57434;42.794;23.302;2023-06-22T01:35:50;13.10;;;6.05;;
70071;SDS011;57434;42.794;23.302;2023-06-22T01:36:51;11.88;;;6.05;;
70071;SDS011;57434;42.794;23.302;2023-06-22T01:37:54;11.73;;;6.15;;
70071;SDS011;57434;42.794;23.302;2023-06-22T01:38:56;10.40;;;5.60;;
70071;SDS011;57434;42.794;23.302;2023-06-22T01:39:58;11.30;;;6.00;;
70071;SDS011;57434;42.794;23.302;2023-06-22T01:41:00;12.43;;;6.05;;
70071;SDS011;57434;42.794;23.302;2023-06-22T01:42:03;10.80;;;5.30;;
70071;SDS011;57434;42.794;23.302;2023-06-22T01:43:05;11.02;;;6.05;;
70071;SDS011;57434;42.794;23.302;2023-06-22T01:44:07;9.63;;;5.80;;
70071;SDS011;57434;42.794;23.302;2023-06-22T01:45:09;9.30;;;5.70;;
70071;SDS011;57434;42.794;23.302;2023-06-22T01:46:11;10.85;;;6.28;;
70071;SDS011;57434;42.794;23.302;2023-06-22T01:47:13;11.20;;;6.47;;
70071;SDS011;57434;42.794;23.302;2023-06-22T01:48:14;10.63;;;6.13;;
70071;SDS011;57434;42.794;23.302;2023-06-22T01:49:16;10.90;;;5.75;;
70071;SDS011;57434;42.794;23.302;2023-06-22T01:50:18;9.80;;;6.05;;
70071;SDS011;57434;42.794;23.302;2023-06-22T01:51:20;10.18;;;6.30;;
70071;SDS011;57434;42.794;23.302;2023-06-22T01:52:22;11.40;;;6.37;;
70071;SDS011;57434;42.794;23.302;2023-06-22T01:53:24;10.20;;;5.93;;
70071;SDS011;57434;42.794;23.302;2023-06-22T01:54:26;13.35;;;6.60;;
70071;SDS011;57434;42.794;23.302;2023-06-22T01:55:27;10.98;;;6.32;;
70071;SDS011;57434;42.794;23.302;2023-06-22T01:56:29;11.13;;;6.10;;
70071;SDS011;57434;42.794;23.302;2023-06-22T01:57:31;10.80;;;6.25;;
70071;SDS011;57434;42.794;23.302;2023-06-22T01:58:33;10.63;;;6.00;;
70071;SDS011;57434;42.794;23.302;2023-06-22T01:59:37;11.20;;;6.20;;
70071;SDS011;57434;42.794;23.302;2023-06-22T02:00:40;9.60;;;5.88;;
70071;SDS011;57434;42.794;23.302;2023-06-22T02:01:52;11.45;;;6.18;;
70071;SDS011;57434;42.794;23.302;2023-06-22T02:03:41;10.23;;;5.87;;
70071;SDS011;57434;42.794;23.302;2023-06-22T02:04:21;9.85;;;5.63;;
70071;SDS011;57434;42.794;23.302;2023-06-22T02:05:31;11.80;;;6.35;;
70071;SDS011;57434;42.794;23.302;2023-06-22T02:06:36;11.75;;;6.07;;
70071;SDS011;57434;42.794;23.302;2023-06-22T02:07:41;11.15;;;6.32;;
70071;SDS011;57434;42.794;23.302;2023-06-22T02:08:47;10.23;;;6.05;;
70071;SDS011;57434;42.794;23.302;2023-06-22T02:09:50;11.60;;;6.30;;
70071;SDS011;57434;42.794;23.302;2023-06-22T02:10:52;13.70;;;6.30;;
70071;SDS011;57434;42.794;23.302;2023-06-22T02:11:55;10.38;;;5.70;;
70071;SDS011;57434;42.794;23.302;2023-06-22T02:12:57;13.80;;;5.80;;
70071;SDS011;57434;42.794;23.302;2023-06-22T02:14:00;11.53;;;6.50;;
70071;SDS011;57434;42.794;23.302;2023-06-22T02:15:01;10.52;;;6.10;;
70071;SDS011;57434;42.794;23.302;2023-06-22T02:16:03;14.70;;;6.45;;
70071;SDS011;57434;42.794;23.302;2023-06-22T02:17:05;11.55;;;5.78;;
70071;SDS011;57434;42.794;23.302;2023-06-22T02:18:07;11.55;;;6.55;;
70071;SDS011;57434;42.794;23.302;2023-06-22T02:19:09;11.63;;;6.18;;
70071;SDS011;57434;42.794;23.302;2023-06-22T02:20:13;11.27;;;6.40;;
70071;SDS011;57434;42.794;23.302;2023-06-22T02:21:15;11.13;;;6.30;;
70071;SDS011;57434;42.794;23.302;2023-06-22T02:22:16;10.35;;;6.38;;
70071;SDS011;57434;42.794;23.302;2023-06-22T02:23:18;10.77;;;6.30;;
70071;SDS011;57434;42.794;23.302;2023-06-22T02:24:20;13.53;;;6.50;;
70071;SDS011;57434;42.794;23.302;2023-06-22T02:25:21;11.85;;;6.22;;
70071;SDS011;57434;42.794;23.302;2023-06-22T02:26:23;10.68;;;6.93;;
70071;SDS011;57434;42.794;23.302;2023-06-22T02:27:26;10.30;;;5.78;;
70071;SDS011;57434;42.794;23.302;2023-06-22T02:28:27;12.23;;;6.13;;
70071;SDS011;57434;42.794;23.302;2023-06-22T02:29:29;11.02;;;6.50;;
70071;SDS011;57434;42.794;23.302;2023-06-22T02:30:31;10.18;;;6.22;;
70071;SDS011;57434;42.794;23.302;2023-06-22T02:31:33;12.43;;;6.80;;
70071;SDS011;57434;42.794;23.302;2023-06-22T02:32:34;13.88;;;6.35;;
70071;SDS011;57434;42.794;23.302;2023-06-22T02:33:36;11.00;;;5.80;;
70071;SDS011;57434;42.794;23.302;2023-06-22T02:34:38;12.10;;;7.17;;
70071;SDS011;57434;42.794;23.302;2023-06-22T02:35:40;11.05;;;6.45;;
70071;SDS011;57434;42.794;23.302;2023-06-22T02:36:41;11.65;;;6.63;;
70071;SDS011;57434;42.794;23.302;2023-06-22T02:37:43;12.23;;;6.28;;
70071;SDS011;57434;42.794;23.302;2023-06-22T02:38:45;11.50;;;6.20;;
70071;SDS011;57434;42.794;23.302;2023-06-22T02:39:46;10.55;;;6.47;;
70071;SDS011;57434;42.794;23.302;2023-06-22T02:40:48;10.98;;;6.40;;
70071;SDS011;57434;42.794;23.302;2023-06-22T02:41:53;11.27;;;6.50;;
70071;SDS011;57434;42.794;23.302;2023-06-22T02:42:55;11.80;;;6.60;;
70071;SDS011;57434;42.794;23.302;2023-06-22T02:43:57;12.70;;;6.60;;
70071;SDS011;57434;42.794;23.302;2023-06-22T02:44:58;10.23;;;5.93;;
70071;SDS011;57434;42.794;23.302;2023-06-22T02:46:00;10.68;;;5.88;;
70071;SDS011;57434;42.794;23.302;2023-06-22T02:47:02;10.75;;;5.80;;
70071;SDS011;57434;42.794;23.302;2023-06-22T02:48:04;11.60;;;6.10;;
70071;SDS011;57434;42.794;23.302;2023-06-22T02:49:06;12.98;;;6.45;;
70071;SDS011;57434;42.794;23.302;2023-06-22T02:50:08;11.05;;;6.40;;
70071;SDS011;57434;42.794;23.302;2023-06-22T02:51:09;10.23;;;6.03;;
70071;SDS011;57434;42.794;23.302;2023-06-22T02:52:11;11.00;;;6.30;;
70071;SDS011;57434;42.794;23.302;2023-06-22T02:53:13;11.80;;;6.90;;
70071;SDS011;57434;42.794;23.302;2023-06-22T02:54:14;11.93;;;6.30;;
70071;SDS011;57434;42.794;23.302;2023-06-22T02:55:16;12.63;;;6.27;;
70071;SDS011;57434;42.794;23.302;2023-06-22T02:56:17;11.02;;;6.20;;
70071;SDS011;57434;42.794;23.302;2023-06-22T02:57:19;11.63;;;6.43;;
70071;SDS011;57434;42.794;23.302;2023-06-22T02:58:21;13.25;;;6.55;;
70071;SDS011;57434;42.794;23.302;2023-06-22T02:59:22;16.23;;;7.07;;
70071;SDS011;57434;42.794;23.302;2023-06-22T03:00:24;13.60;;;5.93;;
70071;SDS011;57434;42.794;23.302;2023-06-22T03:01:29;12.50;;;6.63;;
70071;SDS011;57434;42.794;23.302;2023-06-22T03:02:31;11.93;;;6.40;;
70071;SDS011;57434;42.794;23.302;2023-06-22T03:03:33;12.27;;;6.80;;
70071;SDS011;57434;42.794;23.302;2023-06-22T03:04:35;12.68;;;6.35;;
70071;SDS011;57434;42.794;23.302;2023-06-22T03:05:37;11.87;;;6.57;;
70071;SDS011;57434;42.794;23.302;2023-06-22T03:06:38;14.50;;;7.13;;
70071;SDS011;57434;42.794;23.302;2023-06-22T03:07:40;13.15;;;7.03;;
70071;SDS011;57434;42.794;23.302;2023-06-22T03:08:42;17.23;;;7.50;;
70071;SDS011;57434;42.794;23.302;2023-06-22T03:09:44;13.98;;;7.47;;
70071;SDS011;57434;42.794;23.302;2023-06-22T03:10:45;14.45;;;6.82;;
70071;SDS011;57434;42.794;23.302;2023-06-22T03:11:47;11.00;;;6.65;;
70071;SDS011;57434;42.794;23.302;2023-06-22T03:12:49;12.00;;;6.50;;
70071;SDS011;57434;42.794;23.302;2023-06-22T03:13:50;13.20;;;7.70;;
70071;SDS011;57434;42.794;23.302;2023-06-22T03:14:52;11.90;;;6.82;;
70071;SDS011;57434;42.794;23.302;2023-06-22T03:15:53;13.87;;;6.60;;
70071;SDS011;57434;42.794;23.302;2023-06-22T03:16:55;12.65;;;6.35;;
70071;SDS011;57434;42.794;23.302;2023-06-22T03:17:57;11.38;;;6.55;;
70071;SDS011;57434;42.794;23.302;2023-06-22T03:18:58;11.48;;;7.03;;
70071;SDS011;57434;42.794;23.302;2023-06-22T03:20:00;10.27;;;5.80;;
70071;SDS011;57434;42.794;23.302;2023-06-22T03:21:02;10.95;;;6.63;;
70071;SDS011;57434;42.794;23.302;2023-06-22T03:22:04;12.55;;;6.38;;
70071;SDS011;57434;42.794;23.302;2023-06-22T03:23:05;10.27;;;6.43;;
70071;SDS011;57434;42.794;23.302;2023-06-22T03:24:07;11.55;;;6.65;;
70071;SDS011;57434;42.794;23.302;2023-06-22T03:25:09;12.45;;;6.20;;
70071;SDS011;57434;42.794;23.302;2023-06-22T03:26:10;11.10;;;6.97;;
70071;SDS011;57434;42.794;23.302;2023-06-22T03:27:12;12.13;;;6.93;;
70071;SDS011;57434;42.794;23.302;2023-06-22T03:28:13;13.35;;;7.05;;
70071;SDS011;57434;42.794;23.302;2023-06-22T03:29:15;12.10;;;6.93;;
70071;SDS011;57434;42.794;23.302;2023-06-22T03:30:17;12.27;;;6.50;;
70071;SDS011;57434;42.794;23.302;2023-06-22T03:31:18;12.95;;;7.25;;
70071;SDS011;57434;42.794;23.302;2023-06-22T03:32:20;12.50;;;6.93;;
70071;SDS011;57434;42.794;23.302;2023-06-22T03:33:22;14.02;;;7.93;;
70071;SDS011;57434;42.794;23.302;2023-06-22T03:34:23;15.10;;;7.15;;
70071;SDS011;57434;42.794;23.302;2023-06-22T03:35:25;12.20;;;7.00;;
70071;SDS011;57434;42.794;23.302;2023-06-22T03:53:52;15.60;;;7.75;;
70071;SDS011;57434;42.794;23.302;2023-06-22T03:54:54;12.40;;;8.10;;
70071;SDS011;57434;42.794;23.302;2023-06-22T03:55:55;15.93;;;7.95;;
70071;SDS011;57434;42.794;23.302;2023-06-22T03:56:58;13.13;;;7.68;;
70071;SDS011;57434;42.794;23.302;2023-06-22T03:58:00;15.35;;;7.32;;
70071;SDS011;57434;42.794;23.302;2023-06-22T03:59:01;18.45;;;10.60;;
70071;SDS011;57434;42.794;23.302;2023-06-22T04:00:03;15.75;;;9.13;;
70071;SDS011;57434;42.794;23.302;2023-06-22T04:01:06;15.00;;;7.78;;
70071;SDS011;57434;42.794;23.302;2023-06-22T04:02:08;13.82;;;7.75;;
70071;SDS011;57434;42.794;23.302;2023-06-22T04:03:10;13.60;;;8.02;;
70071;SDS011;57434;42.794;23.302;2023-06-22T04:04:12;13.80;;;7.70;;
70071;SDS011;57434;42.794;23.302;2023-06-22T04:05:14;14.30;;;7.63;;
70071;SDS011;57434;42.794;23.302;2023-06-22T04:06:16;13.77;;;7.00;;
70071;SDS011;57434;42.794;23.302;2023-06-22T04:07:17;11.32;;;7.55;;
70071;SDS011;57434;42.794;23.302;2023-06-22T04:08:19;14.05;;;8.00;;
70071;SDS011;57434;42.794;23.302;2023-06-22T04:09:21;13.93;;;7.72;;
70071;SDS011;57434;42.794;23.302;2023-06-22T04:10:23;13.13;;;7.85;;
70071;SDS011;57434;42.794;23.302;2023-06-22T04:11:25;14.70;;;8.10;;
70071;SDS011;57434;42.794;23.302;2023-06-22T04:12:27;14.50;;;8.10;;
70071;SDS011;57434;42.794;23.302;2023-06-22T04:13:29;15.35;;;8.32;;
70071;SDS011;57434;42.794;23.302;2023-06-22T04:14:31;14.77;;;7.65;;
70071;SDS011;57434;42.794;23.302;2023-06-22T04:15:33;16.30;;;8.90;;
70071;SDS011;57434;42.794;23.302;2023-06-22T04:16:34;17.73;;;8.82;;
70071;SDS011;57434;42.794;23.302;2023-06-22T04:17:36;16.00;;;8.45;;
70071;SDS011;57434;42.794;23.302;2023-06-22T04:18:38;14.00;;;9.25;;
70071;SDS011;57434;42.794;23.302;2023-06-22T04:19:40;16.58;;;8.05;;
70071;SDS011;57434;42.794;23.302;2023-06-22T04:20:42;14.90;;;8.88;;
70071;SDS011;57434;42.794;23.302;2023-06-22T04:21:44;14.27;;;8.32;;
70071;SDS011;57434;42.794;23.302;2023-06-22T04:22:46;17.35;;;8.85;;
70071;SDS011;57434;42.794;23.302;2023-06-22T04:23:48;15.70;;;8.90;;
70071;SDS011;57434;42.794;23.302;2023-06-22T04:24:50;16.83;;;9.02;;
70071;SDS011;57434;42.794;23.302;2023-06-22T04:25:52;14.67;;;8.27;;
70071;SDS011;57434;42.794;23.302;2023-06-22T04:26:54;15.48;;;7.85;;
70071;SDS011;57434;42.794;23.302;2023-06-22T04:27:55;15.32;;;9.15;;
70071;SDS011;57434;42.794;23.302;2023-06-22T04:28:57;16.02;;;9.15;;
70071;SDS011;57434;42.794;23.302;2023-06-22T04:29:59;18.30;;;8.98;;
70071;SDS011;57434;42.794;23.302;2023-06-22T04:31:01;15.48;;;8.00;;
70071;SDS011;57434;42.794;23.302;2023-06-22T04:32:04;14.80;;;9.10;;
70071;SDS011;57434;42.794;23.302;2023-06-22T04:33:07;15.07;;;9.30;;
70071;SDS011;57434;42.794;23.302;2023-06-22T04:34:09;16.08;;;8.73;;
70071;SDS011;57434;42.794;23.302;2023-06-22T04:35:11;16.35;;;9.05;;
70071;SDS011;57434;42.794;23.302;2023-06-22T04:36:13;13.20;;;8.80;;
70071;SDS011;57434;42.794;23.302;2023-06-22T04:37:15;13.73;;;8.30;;
70071;SDS011;57434;42.794;23.302;2023-06-22T04:38:17;15.60;;;8.95;;
70071;SDS011;57434;42.794;23.302;2023-06-22T04:39:19;14.10;;;8.98;;
70071;SDS011;57434;42.794;23.302;2023-06-22T04:40:21;14.90;;;9.10;;
70071;SDS011;57434;42.794;23.302;2023-06-22T04:41:24;18.23;;;8.52;;
70071;SDS011;57434;42.794;23.302;2023-06-22T04:42:26;13.98;;;8.73;;
70071;SDS011;57434;42.794;23.302;2023-06-22T04:43:28;13.40;;;9.27;;
70071;SDS011;57434;42.794;23.302;2023-06-22T04:44:30;15.82;;;9.13;;
70071;SDS011;57434;42.794;23.302;2023-06-22T04:45:32;15.20;;;8.65;;
70071;SDS011;57434;42.794;23.302;2023-06-22T04:46:34;15.47;;;8.90;;
70071;SDS011;57434;42.794;23.302;2023-06-22T04:47:36;16.50;;;8.48;;
70071;SDS011;57434;42.794;23.302;2023-06-22T04:48:38;15.15;;;8.68;;
70071;SDS011;57434;42.794;23.302;2023-06-22T04:49:40;15.07;;;8.98;;
70071;SDS011;57434;42.794;23.302;2023-06-22T04:50:42;15.45;;;9.07;;
70071;SDS011;57434;42.794;23.302;2023-06-22T04:51:44;16.33;;;9.18;;
70071;SDS011;57434;42.794;23.302;2023-06-22T04:52:45;16.83;;;8.90;;
70071;SDS011;57434;42.794;23.302;2023-06-22T04:53:48;17.05;;;9.13;;
70071;SDS011;57434;42.794;23.302;2023-06-22T04:54:50;16.88;;;9.45;;
70071;SDS011;57434;42.794;23.302;2023-06-22T04:55:51;14.93;;;9.60;;
70071;SDS011;57434;42.794;23.302;2023-06-22T04:56:53;19.07;;;9.43;;
70071;SDS011;57434;42.794;23.302;2023-06-22T04:57:55;19.33;;;9.10;;
70071;SDS011;57434;42.794;23.302;2023-06-22T04:58:57;14.32;;;9.18;;
70071;SDS011;57434;42.794;23.302;2023-06-22T04:59:59;16.02;;;9.23;;
70071;SDS011;57434;42.794;23.302;2023-06-22T05:01:01;15.40;;;9.65;;
70071;SDS011;57434;42.794;23.302;2023-06-22T05:02:04;15.63;;;8.23;;
70071;SDS011;57434;42.794;23.302;2023-06-22T05:03:07;14.57;;;8.95;;
70071;SDS011;57434;42.794;23.302;2023-06-22T05:04:21;16.05;;;8.75;;
70071;SDS011;57434;42.794;23.302;2023-06-22T05:05:24;13.80;;;8.98;;
70071;SDS011;57434;42.794;23.302;2023-06-22T05:06:26;15.95;;;8.27;;
70071;SDS011;57434;42.794;23.302;2023-06-22T05:07:29;20.63;;;9.70;;
70071;SDS011;57434;42.794;23.302;2023-06-22T05:08:30;15.50;;;8.85;;
70071;SDS011;57434;42.794;23.302;2023-06-22T05:09:32;16.25;;;10.00;;
70071;SDS011;57434;42.794;23.302;2023-06-22T05:10:34;19.08;;;9.07;;
70071;SDS011;57434;42.794;23.302;2023-06-22T05:11:36;16.02;;;9.05;;
70071;SDS011;57434;42.794;23.302;2023-06-22T05:12:40;15.80;;;8.85;;
70071;SDS011;57434;42.794;23.302;2023-06-22T05:13:42;13.95;;;8.40;;
70071;SDS011;57434;42.794;23.302;2023-06-22T05:14:44;15.80;;;8.95;;
70071;SDS011;57434;42.794;23.302;2023-06-22T05:15:46;15.75;;;8.82;;
70071;SDS011;57434;42.794;23.302;2023-06-22T05:16:48;15.18;;;8.40;;
70071;SDS011;57434;42.794;23.302;2023-06-22T05:17:51;17.50;;;8.63;;
70071;SDS011;57434;42.794;23.302;2023-06-22T05:18:53;17.45;;;8.27;;
70071;SDS011;57434;42.794;23.302;2023-06-22T05:19:56;15.32;;;8.95;;
70071;SDS011;57434;42.794;23.302;2023-06-22T05:20:58;14.48;;;8.68;;
70071;SDS011;57434;42.794;23.302;2023-06-22T05:22:00;13.13;;;7.88;;
70071;SDS011;57434;42.794;23.302;2023-06-22T05:23:02;16.02;;;9.10;;
70071;SDS011;57434;42.794;23.302;2023-06-22T05:24:04;14.55;;;8.48;;
70071;SDS011;57434;42.794;23.302;2023-06-22T05:25:07;15.10;;;8.50;;
70071;SDS011;57434;42.794;23.302;2023-06-22T05:26:11;13.55;;;8.75;;
70071;SDS011;57434;42.794;23.302;2023-06-22T05:27:13;15.10;;;9.00;;
70071;SDS011;57434;42.794;23.302;2023-06-22T05:28:17;16.00;;;9.27;;
70071;SDS011;57434;42.794;23.302;2023-06-22T05:29:19;14.23;;;9.10;;
70071;SDS011;57434;42.794;23.302;2023-06-22T05:30:21;14.85;;;9.38;;
70071;SDS011;57434;42.794;23.302;2023-06-22T05:31:23;13.35;;;8.68;;
70071;SDS011;57434;42.794;23.302;2023-06-22T05:32:25;14.05;;;9.00;;
70071;SDS011;57434;42.794;23.302;2023-06-22T05:33:27;12.13;;;7.95;;
70071;SDS011;57434;42.794;23.302;2023-06-22T05:34:29;15.18;;;8.75;;
70071;SDS011;57434;42.794;23.302;2023-06-22T05:35:31;14.30;;;8.63;;
70071;SDS011;57434;42.794;23.302;2023-06-22T05:36:33;15.07;;;8.95;;
70071;SDS011;57434;42.794;23.302;2023-06-22T05:37:34;15.38;;;8.60;;
70071;SDS011;57434;42.794;23.302;2023-06-22T05:38:36;18.83;;;8.77;;
70071;SDS011;57434;42.794;23.302;2023-06-22T05:39:38;13.23;;;8.57;;
70071;SDS011;57434;42.794;23.302;2023-06-22T05:40:40;12.90;;;8.20;;
70071;SDS011;57434;42.794;23.302;2023-06-22T05:41:42;14.77;;;9.77;;
70071;SDS011;57434;42.794;23.302;2023-06-22T05:42:44;13.30;;;9.27;;
70071;SDS011;57434;42.794;23.302;2023-06-22T05:43:46;16.38;;;8.98;;
70071;SDS011;57434;42.794;23.302;2023-06-22T05:44:48;12.20;;;7.60;;
70071;SDS011;57434;42.794;23.302;2023-06-22T05:45:50;14.00;;;9.30;;
70071;SDS011;57434;42.794;23.302;2023-06-22T05:46:52;14.38;;;9.27;;
70071;SDS011;57434;42.794;23.302;2023-06-22T05:47:54;15.02;;;8.70;;
70071;SDS011;57434;42.794;23.302;2023-06-22T05:48:56;12.43;;;8.60;;
70071;SDS011;57434;42.794;23.302;2023-06-22T05:49:57;18.23;;;8.75;;
70071;SDS011;57434;42.794;23.302;2023-06-22T05:50:59;14.27;;;8.93;;
70071;SDS011;57434;42.794;23.302;2023-06-22T05:52:01;13.27;;;8.90;;
70071;SDS011;57434;42.794;23.302;2023-06-22T05:53:03;14.18;;;9.13;;
70071;SDS011;57434;42.794;23.302;2023-06-22T05:54:05;14.52;;;8.85;;
70071;SDS011;57434;42.794;23.302;2023-06-22T05:55:07;15.40;;;8.95;;
70071;SDS011;57434;42.794;23.302;2023-06-22T05:56:09;13.70;;;8.40;;
70071;SDS011;57434;42.794;23.302;2023-06-22T05:57:11;15.90;;;9.80;;
70071;SDS011;57434;42.794;23.302;2023-06-22T05:58:13;14.82;;;8.60;;
70071;SDS011;57434;42.794;23.302;2023-06-22T05:59:15;14.17;;;8.77;;
70071;SDS011;57434;42.794;23.302;2023-06-22T06:00:17;13.20;;;8.40;;
70071;SDS011;57434;42.794;23.302;2023-06-22T06:01:19;15.65;;;9.20;;
70071;SDS011;57434;42.794;23.302;2023-06-22T06:02:21;14.38;;;9.13;;
70071;SDS011;57434;42.794;23.302;2023-06-22T06:03:23;13.00;;;8.02;;
70071;SDS011;57434;42.794;23.302;2023-06-22T06:04:25;13.15;;;8.20;;
70071;SDS011;57434;42.794;23.302;2023-06-22T06:05:27;12.38;;;8.30;;
70071;SDS011;57434;42.794;23.302;2023-06-22T06:06:29;14.35;;;8.65;;
70071;SDS011;57434;42.794;23.302;2023-06-22T06:07:31;13.48;;;8.65;;
70071;SDS011;57434;42.794;23.302;2023-06-22T06:08:33;13.50;;;8.88;;
70071;SDS011;57434;42.794;23.302;2023-06-22T06:09:35;15.60;;;8.03;;
70071;SDS011;57434;42.794;23.302;2023-06-22T06:10:37;16.30;;;8.80;;
70071;SDS011;57434;42.794;23.302;2023-06-22T06:11:39;13.30;;;9.30;;
70071;SDS011;57434;42.794;23.302;2023-06-22T06:12:41;13.43;;;8.88;;
70071;SDS011;57434;42.794;23.302;2023-06-22T06:13:43;12.90;;;9.25;;
70071;SDS011;57434;42.794;23.302;2023-06-22T06:14:45;13.60;;;8.50;;
70071;SDS011;57434;42.794;23.302;2023-06-22T06:15:46;13.40;;;8.48;;
70071;SDS011;57434;42.794;23.302;2023-06-22T06:16:49;15.48;;;8.70;;
70071;SDS011;57434;42.794;23.302;2023-06-22T06:17:51;13.20;;;9.13;;
70071;SDS011;57434;42.794;23.302;2023-06-22T06:18:54;14.30;;;8.32;;
70071;SDS011;57434;42.794;23.302;2023-06-22T06:19:56;13.80;;;8.63;;
70071;SDS011;57434;42.794;23.302;2023-06-22T06:21:00;14.85;;;9.30;;
70071;SDS011;57434;42.794;23.302;2023-06-22T06:22:01;14.77;;;9.38;;
70071;SDS011;57434;42.794;23.302;2023-06-22T06:23:03;14.43;;;9.02;;
70071;SDS011;57434;42.794;23.302;2023-06-22T06:24:05;13.48;;;8.35;;
70071;SDS011;57434;42.794;23.302;2023-06-22T06:25:08;13.75;;;9.13;;
70071;SDS011;57434;42.794;23.302;2023-06-22T06:26:10;13.15;;;8.73;;
70071;SDS011;57434;42.794;23.302;2023-06-22T06:27:12;13.00;;;8.68;;
70071;SDS011;57434;42.794;23.302;2023-06-22T06:28:14;13.07;;;8.90;;
70071;SDS011;57434;42.794;23.302;2023-06-22T06:29:15;14.02;;;8.98;;